Time;durP1;ratioP1;P1;durP2;ratioP2;P2;SDS_P1;SDS_P2;PMS_P1;PMS_P2;Temp;Humidity;BMP_temperature;BMP_pressure;BME280_temperature;BME280_humidity;BME280_pressure;Samples;Min_cycle;Max_cycle;Signal;HPM_P1;HPM_P2
2022/08/25 00:01:44;;;;;;;7.45;2.50;;;;;;;19.51;78.33;99036.97;5089500;28;20040;-84
2022/08/25 00:04:14;;;;;;;3.15;2.30;;;;;;;19.55;78.53;99035.34;5085132;28;20101;-83
2022/08/25 00:06:46;;;;;;;4.78;2.53;;;;;;;19.47;80.53;99038.53;5089543;28;20060;-83
2022/08/25 00:09:15;;;;;;;6.43;2.83;;;;;;;19.31;81.34;99015.31;5091587;28;20563;-83
2022/08/25 00:11:51;;;;;;;3.60;2.72;;;;;;;19.61;81.10;99033.53;5088796;28;20079;-84
2022/08/25 00:14:20;;;;;;;4.72;2.83;;;;;;;19.71;80.22;99030.16;5089773;28;20048;-83
2022/08/25 00:16:47;;;;;;;4.85;2.85;;;;;;;19.83;79.36;99030.09;5091872;28;20131;-83
2022/08/25 00:19:30;;;;;;;4.80;2.88;;;;;;;19.88;79.59;99027.44;5092334;28;20108;-84
2022/08/25 00:22:01;;;;;;;4.18;3.53;;;;;;;19.78;79.20;99006.88;5083885;28;20104;-84
2022/08/25 00:24:29;;;;;;;3.83;3.10;;;;;;;19.88;78.88;99019.16;5093069;28;20411;-84
2022/08/25 00:27:00;;;;;;;4.07;3.33;;;;;;;19.92;79.30;99021.16;5079644;28;20131;-84
2022/08/25 00:29:28;;;;;;;3.65;3.00;;;;;;;19.74;80.08;99011.16;5083506;28;20050;-84
2022/08/25 00:31:55;;;;;;;8.50;3.75;;;;;;;19.85;79.48;99020.50;5090988;28;20503;-84
2022/08/25 00:34:27;;;;;;;4.43;3.13;;;;;;;19.84;79.28;99021.56;5084931;28;20060;-84
2022/08/25 00:36:57;;;;;;;3.90;3.33;;;;;;;19.92;79.47;99029.44;5085639;28;20075;-82
2022/08/25 00:39:26;;;;;;;4.22;3.45;;;;;;;19.84;79.58;99023.50;5093090;28;20368;-84
2022/08/25 00:41:56;;;;;;;4.57;3.72;;;;;;;19.74;80.32;99027.72;5076160;28;20108;-84
2022/08/25 00:44:24;;;;;;;6.60;3.35;;;;;;;19.83;80.27;99030.09;5080941;28;20567;-84
2022/08/25 00:46:54;;;;;;;4.53;3.45;;;;;;;19.77;80.33;99032.78;5084335;28;20475;-84
2022/08/25 00:49:27;;;;;;;4.05;3.50;;;;;;;19.75;80.50;99029.41;5092589;28;20415;-84
2022/08/25 00:52:13;;;;;;;5.53;4.10;;;;;;;19.69;81.04;99040.56;5085001;28;20075;-84
2022/08/25 00:55:09;;;;;;;5.00;3.80;;;;;;;19.61;81.22;99028.84;5092495;28;20044;-83
2022/08/25 00:57:55;;;;;;;5.80;3.47;;;;;;;19.49;81.13;99035.53;5088188;28;20048;-83
2022/08/25 01:00:28;;;;;;;4.40;3.20;;;;;;;19.29;82.09;99020.25;5089933;28;20056;-84
2022/08/25 01:02:56;;;;;;;4.40;3.28;;;;;;;18.90;83.51;99025.53;5082822;28;20122;-84
2022/08/25 01:05:26;;;;;;;7.03;3.75;;;;;;;19.00;83.31;99017.47;5092239;28;20063;-84
2022/08/25 01:07:57;;;;;;;3.40;2.78;;;;;;;18.84;84.74;99030.06;5084044;28;20513;-83
2022/08/25 01:10:24;;;;;;;5.20;3.30;;;;;;;18.94;84.96;99040.50;5089399;28;20044;-83
2022/08/25 01:12:55;;;;;;;5.25;3.17;;;;;;;18.82;85.11;99014.84;5083863;28;20054;-83
2022/08/25 01:15:27;;;;;;;4.72;2.63;;;;;;;18.88;85.37;99035.97;5081019;28;20048;-84
2022/08/25 01:17:57;;;;;;;4.25;3.28;;;;;;;18.75;85.90;99028.75;5092644;28;20087;-84
2022/08/25 01:20:54;;;;;;;4.35;3.40;;;;;;;18.67;86.29;99038.22;5074132;28;20051;-84
2022/08/25 01:23:22;;;;;;;6.95;3.35;;;;;;;18.71;85.54;99019.28;5084753;28;20052;-84
2022/08/25 01:26:28;;;;;;;;;;;;;;;;;;;;;
2022/08/25 01:31:45;;;;;;;4.80;3.50;;;;;;;18.53;86.68;98999.09;5081716;28;20060;-84
2022/08/25 01:34:12;;;;;;;6.03;3.28;;;;;;;18.51;86.72;98997.66;5089257;28;20134;-83
2022/08/25 01:36:51;;;;;;;4.68;3.45;;;;;;;18.46;87.30;99011.31;5083099;28;20418;-83
2022/08/25 01:39:24;;;;;;;3.97;3.55;;;;;;;18.36;88.49;98996.22;5091323;28;20051;-84
2022/08/25 01:42:08;;;;;;;6.97;3.72;;;;;;;18.62;87.19;99018.81;5084105;28;20440;-84
2022/08/25 01:44:39;;;;;;;3.42;2.90;;;;;;;18.48;87.38;98987.13;5089019;28;20055;-84
2022/08/25 01:47:08;;;;;;;7.55;3.63;;;;;;;18.58;88.82;99020.41;5092182;28;20059;-84
2022/08/25 01:49:43;;;;;;;7.13;4.13;;;;;;;18.58;90.15;99020.41;5084664;28;20135;-83
2022/08/25 01:52:24;;;;;;;5.65;4.00;;;;;;;18.48;90.87;98993.47;5088381;28;20071;-81
2022/08/25 01:58:01;;;;;;;;;;;;;;;18.73;90.43;99015.22;5031941;28;20162;-85
2022/08/25 02:00:28;;;;;;;6.03;4.43;;;;;;;18.71;90.52;98997.28;5092038;28;19926;-84
2022/08/25 02:02:54;;;;;;;7.03;4.80;;;;;;;18.81;91.02;99018.69;5089065;28;20071;-83
2022/08/25 02:05:23;;;;;;;7.43;4.82;;;;;;;18.85;90.64;99018.00;5090477;28;20040;-84
2022/08/25 02:09:06;;;;;;;6.78;4.70;;;;;;;18.87;90.38;99003.97;5086652;28;20044;-84
2022/08/25 02:11:38;;;;;;;5.38;4.07;;;;;;;18.86;89.84;98994.03;5088217;28;20056;-84
2022/08/25 02:14:44;;;;;;;6.63;4.20;;;;;;;18.74;88.23;98991.28;5087240;28;20474;-84
2022/08/25 02:17:45;;;;;;;7.82;4.00;;;;;;;18.35;89.88;98997.31;5085595;28;20152;-84
2022/08/25 02:20:20;;;;;;;5.20;3.85;;;;;;;18.56;89.74;99026.16;5083249;28;20052;-83
2022/08/25 02:22:51;;;;;;;4.53;3.70;;;;;;;18.11;91.58;99010.25;5090841;28;20044;-84
2022/08/25 02:26:08;;;;;;;6.20;4.13;;;;;;;18.04;92.16;99013.09;5085477;28;20105;-84
2022/08/25 02:28:38;;;;;;;3.75;3.10;;;;;;;18.05;93.31;99027.69;5086665;28;20056;-84
2022/08/25 02:31:05;;;;;;;4.80;3.75;;;;;;;18.17;91.99;99025.78;5079432;28;20072;-84
2022/08/25 02:33:32;;;;;;;7.28;3.10;;;;;;;18.06;92.04;99026.59;5088898;28;20054;-83
2022/08/25 02:35:59;;;;;;;5.85;4.15;;;;;;;17.92;93.05;99036.16;5084918;28;20046;-83
2022/08/25 02:38:27;;;;;;;5.47;3.75;;;;;;;17.93;93.18;99029.56;5090828;28;20048;-84
2022/08/25 02:40:55;;;;;;;5.18;3.88;;;;;;;17.79;94.80;99027.00;5087784;28;20093;-84
2022/08/25 02:43:23;;;;;;;6.15;3.83;;;;;;;17.70;94.70;99020.16;5089472;28;20047;-83
2022/08/25 02:45:50;;;;;;;6.20;3.97;;;;;;;17.63;94.66;99002.94;5082449;28;20356;-83
2022/08/25 02:48:16;;;;;;;5.25;3.90;;;;;;;17.57;95.26;99012.97;5081565;28;20044;-83
2022/08/25 02:50:46;;;;;;;4.95;3.90;;;;;;;17.60;95.00;99018.00;5089614;28;20051;-83
2022/08/25 02:53:13;;;;;;;;;;;;;;;17.59;95.02;99021.81;5090389;28;20062;-83
2022/08/25 02:55:40;;;;;;;5.43;3.67;;;;;;;17.39;96.93;99016.63;5080558;28;19927;-83
2022/08/25 02:58:09;;;;;;;7.75;3.78;;;;;;;17.28;97.13;99003.66;5090904;28;20044;-84
2022/08/25 03:00:35;;;;;;;6.22;3.97;;;;;;;17.27;98.25;99004.75;5075538;28;20083;-83
2022/08/25 03:03:02;;;;;;;7.18;3.85;;;;;;;17.39;96.69;98994.63;5087589;28;20055;-83
2022/08/25 03:05:29;;;;;;;7.20;5.30;;;;;;;17.49;95.12;99007.78;5090051;28;20080;-83
2022/08/25 03:07:56;;;;;;;5.63;3.95;;;;;;;17.49;98.99;99016.03;5091091;28;20502;-83
2022/08/25 03:10:22;;;;;;;7.18;4.50;;;;;;;17.19;100.00;98994.06;5083292;28;20053;-84
2022/08/25 03:12:49;;;;;;;5.38;4.03;;;;;;;17.32;99.58;99000.19;5089786;28;20051;-83
2022/08/25 03:15:18;;;;;;;4.97;3.78;;;;;;;17.12;100.00;99005.97;5089833;28;20483;-83
2022/08/25 03:17:46;;;;;;;7.57;4.18;;;;;;;17.10;100.00;99018.25;5090921;28;20044;-84
2022/08/25 03:20:13;;;;;;;5.55;4.10;;;;;;;17.11;100.00;99015.28;5080549;28;20436;-83
2022/08/25 03:22:39;;;;;;;7.78;4.07;;;;;;;16.94;100.00;99003.28;5090374;28;20062;-83
2022/08/25 03:27:51;;;;;;;6.78;4.55;;;;;;;16.80;100.00;99006.13;5070446;28;20051;-83
2022/08/25 03:30:20;;;;;;;6.97;4.50;;;;;;;16.87;100.00;99019.81;5082957;28;20048;-83
2022/08/25 03:32:50;;;;;;;8.30;4.28;;;;;;;16.79;100.00;99007.19;5088470;28;20141;-83
2022/08/25 03:35:17;;;;;;;6.80;4.63;;;;;;;16.98;99.99;99019.06;5089657;28;20083;-83
2022/08/25 03:37:43;;;;;;;6.30;4.50;;;;;;;16.92;100.00;99011.75;5078025;28;20084;-84
2022/08/25 03:40:13;;;;;;;6.82;4.20;;;;;;;16.66;100.00;98993.63;5085071;28;20048;-84
2022/08/25 03:42:40;;;;;;;9.25;4.47;;;;;;;16.83;100.00;99029.56;5093570;28;20040;-84
2022/08/25 03:45:10;;;;;;;5.65;4.28;;;;;;;16.73;100.00;98999.06;5087253;28;20050;-84
2022/08/25 03:47:39;;;;;;;8.63;4.30;;;;;;;16.71;100.00;99010.25;5094698;28;20388;-83
2022/08/25 03:50:08;;;;;;;9.95;5.20;;;;;;;16.67;100.00;99019.19;5093026;28;20423;-83
2022/08/25 03:52:34;;;;;;;9.73;4.97;;;;;;;16.54;100.00;99018.25;5073901;28;20129;-84
2022/08/25 03:55:02;;;;;;;7.47;4.97;;;;;;;16.45;100.00;99014.97;5090646;28;20044;-84
2022/08/25 03:57:29;;;;;;;6.32;4.22;;;;;;;16.44;100.00;99006.97;5091276;28;20589;-83
2022/08/25 04:02:57;;;;;;;7.38;4.55;;;;;;;16.54;100.00;99007.25;5083126;28;20528;-83
2022/08/25 04:05:35;;;;;;;5.40;4.47;;;;;;;16.49;100.00;98998.88;5093610;28;20048;-83
2022/08/25 04:08:03;;;;;;;5.63;4.03;;;;;;;16.41;100.00;99000.03;5078288;28;20047;-83
2022/08/25 04:10:30;;;;;;;7.63;5.03;;;;;;;16.35;100.00;99016.53;5087184;28;20753;-85
2022/08/25 04:12:57;;;;;;;9.95;4.70;;;;;;;16.07;100.00;98991.28;5093519;28;20048;-83
2022/08/25 04:15:24;;;;;;;7.47;5.00;;;;;;;16.10;100.00;99011.94;5087487;28;20055;-83
2022/08/25 04:17:52;;;;;;;10.45;5.00;;;;;;;16.00;100.00;98989.66;5085478;28;20056;-83
2022/08/25 04:20:19;;;;;;;9.32;5.43;;;;;;;16.16;100.00;99000.06;5090098;28;20135;-83
2022/08/25 04:22:47;;;;;;;9.30;5.13;;;;;;;16.17;100.00;98989.91;5092730;28;20051;-83
2022/08/25 04:25:14;;;;;;;8.18;5.03;;;;;;;16.27;100.00;98995.72;5080277;28;20521;-84
2022/08/25 04:27:41;;;;;;;6.80;5.22;;;;;;;16.28;100.00;99000.16;5087679;28;20052;-83
2022/08/25 04:30:09;;;;;;;6.88;4.32;;;;;;;16.36;100.00;99008.09;5088554;28;20048;-83
2022/08/25 04:32:38;;;;;;;7.38;4.78;;;;;;;16.27;100.00;98995.72;5091442;28;20082;-83
2022/08/25 04:35:07;;;;;;;8.00;5.63;;;;;;;16.23;100.00;98998.09;5090088;28;20058;-84
2022/08/25 04:37:34;;;;;;;6.55;5.05;;;;;;;16.46;100.00;99010.31;5089885;28;20063;-83
2022/08/25 04:40:01;;;;;;;8.30;5.03;;;;;;;16.58;100.00;99010.41;5093649;28;20127;-83
2022/08/25 04:42:27;;;;;;;6.75;4.72;;;;;;;16.54;100.00;98995.47;5092166;28;20047;-83
2022/08/25 04:44:54;;;;;;;7.40;5.45;;;;;;;16.55;100.00;99008.13;5082252;28;20387;-85
2022/08/25 04:47:21;;;;;;;9.93;5.75;;;;;;;16.38;100.00;99008.72;5093509;28;20048;-84
2022/08/25 04:49:47;;;;;;;10.48;5.47;;;;;;;16.17;100.00;99000.88;5092169;28;20070;-83
2022/08/25 04:52:16;;;;;;;6.05;4.65;;;;;;;16.09;100.00;99000.13;5091915;28;20150;-83
2022/08/25 04:54:43;;;;;;;6.00;4.57;;;;;;;16.07;100.00;99007.72;5090949;28;20394;-83
2022/08/25 04:57:11;;;;;;;6.20;4.90;;;;;;;16.14;100.00;99015.06;5093471;28;20104;-83
2022/08/25 04:59:38;;;;;;;8.80;5.20;;;;;;;16.11;100.00;99005.41;5089712;28;20558;-83
2022/08/25 05:02:05;;;;;;;10.00;6.68;;;;;;;16.33;100.00;99019.50;5085698;28;20051;-83
2022/08/25 05:04:34;;;;;;;9.15;5.43;;;;;;;16.28;100.00;98995.50;5088823;28;20081;-83
2022/08/25 05:07:02;;;;;;;11.98;4.80;;;;;;;16.41;100.00;99026.59;5092434;28;20048;-82
2022/08/25 05:09:30;;;;;;;11.27;6.13;;;;;;;16.27;100.00;99001.22;5093198;28;20170;-83
2022/08/25 05:11:57;;;;;;;7.60;5.53;;;;;;;16.34;100.00;99023.13;5083974;28;20410;-83
2022/08/25 05:14:24;;;;;;;7.85;5.68;;;;;;;16.13;100.00;99000.50;5084707;28;20086;-83
2022/08/25 05:16:58;;;;;;;8.48;5.78;;;;;;;16.26;100.00;99007.78;5087462;28;20043;-82
2022/08/25 05:19:25;;;;;;;10.60;5.80;;;;;;;16.24;100.00;99005.28;5087854;28;20054;-83
2022/08/25 05:21:53;;;;;;;8.98;6.22;;;;;;;16.38;100.00;98995.00;5090236;28;20044;-83
2022/08/25 05:24:20;;;;;;;9.05;6.43;;;;;;;16.54;100.00;99020.16;5080271;28;20055;-83
2022/08/25 05:26:49;;;;;;;11.95;6.63;;;;;;;16.43;100.00;99002.53;5093713;28;20048;-83
2022/08/25 05:29:15;;;;;;;8.40;5.63;;;;;;;16.60;100.00;99008.25;5072917;28;20102;-83
2022/08/25 05:31:44;;;;;;;10.40;6.63;;;;;;;16.68;100.00;99001.63;5092072;28;20044;-82
2022/08/25 05:34:11;;;;;;;9.23;6.20;;;;;;;16.73;100.00;99002.63;5092856;28;20048;-83
2022/08/25 05:36:41;;;;;;;9.02;6.40;;;;;;;16.76;100.00;98990.38;5094022;28;20044;-83
2022/08/25 05:39:08;;;;;;;9.73;6.18;;;;;;;16.75;100.00;98980.44;5085133;28;20052;-83
2022/08/25 05:41:37;;;;;;;9.50;6.20;;;;;;;16.98;100.00;98988.84;5074575;28;20061;-83
2022/08/25 05:44:06;;;;;;;12.93;6.15;;;;;;;17.00;100.00;98991.38;5078879;28;20041;-83
2022/08/25 05:46:33;;;;;;;17.25;6.97;;;;;;;17.08;100.00;98995.69;5089346;28;20044;-83
2022/08/25 05:49:00;;;;;;;9.48;5.63;;;;;;;17.08;100.00;98976.47;5086632;28;20050;-83
2022/08/25 05:51:27;;;;;;;9.15;6.10;;;;;;;17.31;100.00;98989.44;5088099;28;20443;-84
2022/08/25 05:53:56;;;;;;;10.88;6.85;;;;;;;17.39;100.00;98991.03;5073008;28;20106;-84
2022/08/25 05:56:25;;;;;;;8.65;6.40;;;;;;;17.52;100.00;98983.44;5073557;28;20051;-83
2022/08/25 05:58:56;;;;;;;8.52;6.70;;;;;;;17.85;100.00;98986.72;5082361;28;20066;-84
2022/08/25 06:04:11;;;;;;;11.43;6.90;;;;;;;18.61;94.28;98970.38;5072879;28;20058;-83
2022/08/25 06:06:47;;;;;;;10.48;6.07;;;;;;;19.30;89.67;98975.09;5083981;28;20059;-84
2022/08/25 06:09:16;;;;;;;10.10;5.93;;;;;;;19.51;86.71;98984.56;5087109;28;20127;-83
2022/08/25 06:11:43;;;;;;;12.48;6.63;;;;;;;19.86;83.03;98960.63;5091901;28;20476;-84
2022/08/25 06:14:11;;;;;;;18.23;6.65;;;;;;;20.30;80.35;98975.41;5087253;28;20626;-84
2022/08/25 06:16:39;;;;;;;12.98;6.53;;;;;;;20.80;78.12;98981.91;5080852;28;20040;-84
2022/08/25 06:19:07;;;;;;;8.88;5.95;;;;;;;21.28;75.04;98973.09;5091136;28;20075;-84
2022/08/25 06:21:34;;;;;;;9.38;6.00;;;;;;;21.33;74.41;98982.28;5091984;28;20149;-84
2022/08/25 06:24:01;;;;;;;10.82;6.82;;;;;;;21.50;74.09;98975.84;5081342;28;20048;-85
2022/08/25 06:26:28;;;;;;;11.05;6.15;;;;;;;22.00;71.20;98988.47;5091326;28;20048;-85
2022/08/25 06:28:54;;;;;;;9.23;6.35;;;;;;;22.00;71.02;98993.16;5091424;28;20086;-84
2022/08/25 06:31:26;;;;;;;11.82;5.70;;;;;;;21.95;71.50;98993.09;5079696;28;20183;-84
2022/08/25 06:33:57;;;;;;;9.52;5.22;;;;;;;21.94;71.50;98991.47;5083712;28;20344;-84
2022/08/25 06:36:23;;;;;;;9.73;5.55;;;;;;;22.34;69.76;98976.25;5083945;28;20053;-84
2022/08/25 06:38:55;;;;;;;12.07;6.13;;;;;;;22.62;68.75;98967.56;5074908;28;20043;-85
2022/08/25 06:41:22;;;;;;;7.97;5.90;;;;;;;22.77;68.66;98982.63;5087142;28;20443;-84
2022/08/25 06:43:50;;;;;;;14.85;6.20;;;;;;;22.67;68.69;98971.47;5074091;28;20482;-85
2022/08/25 06:46:20;;;;;;;12.45;5.38;;;;;;;23.08;67.06;98966.94;5084938;28;20045;-84
2022/08/25 06:48:47;;;;;;;13.52;6.15;;;;;;;22.95;67.02;98968.28;5091215;28;20044;-85
2022/08/25 06:51:18;;;;;;;9.63;5.60;;;;;;;23.24;65.29;98976.16;5087764;28;20040;-85
2022/08/25 06:53:47;;;;;;;16.52;5.63;;;;;;;23.57;64.40;98978.75;5080513;28;20059;-84
2022/08/25 06:56:14;;;;;;;;;;;;;;;23.75;63.71;98980.97;5089437;28;20047;-82
2022/08/25 06:58:44;;;;;;;11.10;5.47;;;;;;;23.57;63.91;98965.69;5085335;28;19923;-84
2022/08/25 07:01:13;;;;;;;10.07;5.60;;;;;;;24.16;62.07;98975.47;5086686;28;20056;-84
2022/08/25 07:03:41;;;;;;;14.20;5.05;;;;;;;24.53;61.07;98988.16;5087210;28;20055;-84
2022/08/25 07:06:08;;;;;;;11.02;5.45;;;;;;;24.63;60.75;98979.03;5082822;28;20102;-84
2022/08/25 07:08:37;;;;;;;17.75;5.25;;;;;;;24.67;59.97;98979.28;5086548;28;20400;-84
2022/08/25 07:11:05;;;;;;;7.57;5.43;;;;;;;24.41;60.83;98972.94;5086899;28;20497;-84
2022/08/25 07:13:32;;;;;;;11.20;5.38;;;;;;;24.48;61.07;98965.13;5080725;28;20044;-85
2022/08/25 07:15:58;;;;;;;6.85;5.03;;;;;;;24.83;59.94;98972.56;5090297;28;20050;-85
2022/08/25 07:18:26;;;;;;;7.68;5.15;;;;;;;24.17;61.16;98966.00;5086639;28;20071;-83
2022/08/25 07:20:53;;;;;;;6.80;4.78;;;;;;;24.57;60.80;98955.13;5081842;28;20108;-83
2022/08/25 07:23:20;;;;;;;12.98;5.43;;;;;;;24.86;60.15;98969.19;5080953;28;20044;-83
2022/08/25 07:25:50;;;;;;;8.80;4.95;;;;;;;24.88;59.52;98960.56;5082805;28;20131;-83
2022/08/25 07:28:17;;;;;;;5.65;4.97;;;;;;;24.76;59.74;98955.34;5086180;28;20044;-83
2022/08/25 07:30:44;;;;;;;10.50;5.32;;;;;;;24.81;60.87;98962.81;5088189;28;20048;-83
2022/08/25 07:33:11;;;;;;;6.90;5.00;;;;;;;24.61;60.55;98953.44;5092518;28;20052;-83
2022/08/25 07:35:37;;;;;;;8.90;4.65;;;;;;;24.73;59.26;98945.63;5082654;28;20087;-83
2022/08/25 07:38:09;;;;;;;11.18;5.45;;;;;;;24.84;59.14;98959.47;5081977;28;20041;-83
2022/08/25 07:40:38;;;;;;;6.00;4.60;;;;;;;24.89;59.18;98953.91;5071239;28;20083;-83
2022/08/25 07:43:10;;;;;;;7.88;4.93;;;;;;;24.97;58.91;98942.19;5058091;28;20048;-84
2022/08/25 07:45:39;;;;;;;8.95;4.70;;;;;;;24.63;61.07;98967.91;5074250;28;20048;-83
2022/08/25 07:48:11;;;;;;;6.72;5.32;;;;;;;24.54;60.97;98955.69;5078301;28;20514;-83
2022/08/25 07:50:40;;;;;;;12.32;4.68;;;;;;;24.62;60.34;98957.06;5077355;28;20151;-84
2022/08/25 07:53:09;;;;;;;11.88;4.20;;;;;;;24.71;60.48;98952.59;5080528;28;20048;-83
2022/08/25 07:55:36;;;;;;;5.82;4.18;;;;;;;24.75;60.00;98950.91;5088517;28;20181;-83
2022/08/25 07:58:03;;;;;;;6.90;3.85;;;;;;;24.99;59.64;98959.44;5090182;28;20047;-83
2022/08/25 08:00:35;;;;;;;5.63;4.32;;;;;;;24.97;60.71;98953.31;5075482;28;20052;-83
2022/08/25 08:03:04;;;;;;;7.72;5.03;;;;;;;25.06;57.82;98953.53;5085977;28;20043;-84
2022/08/25 08:05:30;;;;;;;7.55;4.60;;;;;;;25.04;57.89;98964.94;5089997;28;20055;-83
2022/08/25 08:07:57;;;;;;;5.57;4.05;;;;;;;25.21;58.63;98953.47;5087712;28;20344;-83
2022/08/25 08:10:24;;;;;;;7.00;4.45;;;;;;;25.27;57.75;98966.22;5075906;28;20413;-83
2022/08/25 08:12:52;;;;;;;6.05;4.30;;;;;;;25.33;56.90;98963.44;5073706;28;20461;-84
2022/08/25 08:15:19;;;;;;;7.30;4.20;;;;;;;25.07;58.45;98964.38;5091393;28;20489;-81
2022/08/25 08:17:47;;;;;;;7.53;4.40;;;;;;;24.97;58.12;98960.81;5081856;28;20052;-83
2022/08/25 08:20:16;;;;;;;8.90;4.65;;;;;;;25.12;58.21;98954.34;5079844;28;20055;-83
2022/08/25 08:22:44;;;;;;;5.43;4.28;;;;;;;25.23;57.69;98951.25;5087745;28;20048;-83
2022/08/25 08:25:11;;;;;;;6.35;4.30;;;;;;;25.00;57.29;98941.59;5083979;28;20059;-83
2022/08/25 08:27:38;;;;;;;7.72;4.68;;;;;;;25.29;57.15;98951.19;5089657;28;20440;-83
2022/08/25 08:30:06;;;;;;;6.80;4.35;;;;;;;25.24;57.74;98938.16;5086100;28;20422;-83
2022/08/25 08:32:32;;;;;;;6.80;4.50;;;;;;;25.24;57.45;98929.81;5092640;28;20065;-82
2022/08/25 08:35:00;;;;;;;6.38;4.53;;;;;;;25.46;56.49;98943.34;5086271;28;20129;-83
2022/08/25 08:37:27;;;;;;;6.80;4.30;;;;;;;25.50;56.23;98941.63;5086804;28;20121;-84
2022/08/25 08:39:54;;;;;;;7.07;4.68;;;;;;;25.68;55.89;98934.53;5084209;28;20071;-84
2022/08/25 08:42:38;;;;;;;7.78;4.13;;;;;;;25.62;55.35;98938.47;5074634;28;20486;-83
2022/08/25 08:45:23;;;;;;;7.45;3.70;;;;;;;25.62;55.99;98938.47;5083007;28;20044;-84
2022/08/25 08:47:59;;;;;;;6.82;3.90;;;;;;;25.95;55.48;98939.63;5077478;28;20047;-84
2022/08/25 08:50:34;;;;;;;4.75;3.95;;;;;;;25.64;55.01;98919.56;5087052;28;20444;-85
2022/08/25 08:53:07;;;;;;;7.97;4.70;;;;;;;25.69;54.79;98930.63;5082847;28;20431;-84
2022/08/25 08:55:38;;;;;;;5.57;4.55;;;;;;;25.53;55.32;98904.03;5079728;28;20052;-84
2022/08/25 08:58:10;;;;;;;5.05;3.83;;;;;;;25.51;54.79;98925.78;5078296;28;20052;-83
2022/08/25 09:00:41;;;;;;;7.68;4.03;;;;;;;25.62;55.13;98930.13;5086230;28;20093;-83
2022/08/25 09:03:13;;;;;;;4.57;3.80;;;;;;;25.67;54.96;98918.97;5093938;28;20109;-83
2022/08/25 09:05:47;;;;;;;7.05;3.95;;;;;;;25.87;54.44;98917.13;5094921;28;20091;-83
2022/08/25 09:08:16;;;;;;;6.35;4.15;;;;;;;25.90;53.40;98916.53;5091476;28;20056;-84
2022/08/25 09:10:57;;;;;;;4.75;4.03;;;;;;;26.10;53.53;98916.38;5093266;28;20487;-84
2022/08/25 09:13:34;;;;;;;3.75;3.15;;;;;;;26.30;51.56;98900.56;5088913;28;20048;-84
2022/08/25 09:19:03;;;;;;;6.38;3.72;;;;;;;26.48;50.87;98908.19;5057508;28;20063;-83
2022/08/25 09:21:38;;;;;;;5.28;3.63;;;;;;;26.53;50.21;98900.84;5072708;28;20049;-84
2022/08/25 09:24:19;;;;;;;5.03;3.28;;;;;;;26.74;50.16;98907.91;5071795;28;20041;-83
2022/08/25 09:26:58;;;;;;;4.45;3.47;;;;;;;26.85;49.37;98892.69;5071406;28;20052;-83
2022/08/25 09:29:35;;;;;;;5.80;3.92;;;;;;;26.89;49.14;98892.06;5089275;28;20135;-83
2022/08/25 09:32:03;;;;;;;3.97;3.33;;;;;;;26.93;48.72;98882.81;5074305;28;20076;-84
2022/08/25 09:34:33;;;;;;;4.95;3.63;;;;;;;26.96;49.71;98887.81;5072702;28;20381;-84
2022/08/25 09:37:01;;;;;;;7.60;3.90;;;;;;;26.95;49.01;98877.78;5072770;28;20041;-84
2022/08/25 09:39:28;;;;;;;4.00;3.60;;;;;;;26.99;47.91;98873.25;5072101;28;20487;-85
2022/08/25 09:41:57;;;;;;;7.30;3.45;;;;;;;27.06;48.08;98878.47;5072257;28;20044;-84
2022/08/25 09:44:25;;;;;;;8.50;4.28;;;;;;;26.99;47.35;98855.69;5070982;28;20423;-84
2022/08/25 09:47:00;;;;;;;6.38;3.58;;;;;;;27.12;48.67;98876.44;5084155;28;20055;-84
2022/08/25 09:49:37;;;;;;;7.22;3.63;;;;;;;27.17;47.27;98881.91;5092648;28;20079;-84
2022/08/25 09:52:23;;;;;;;4.82;3.72;;;;;;;27.37;47.10;98878.84;5091829;28;20335;-84
2022/08/25 09:54:51;;;;;;;5.55;3.28;;;;;;;27.02;47.08;98875.44;5091080;28;20048;-84
2022/08/25 09:57:32;;;;;;;9.18;4.15;;;;;;;26.64;47.90;98867.00;5092699;28;20052;-83
2022/08/25 10:00:12;;;;;;;6.05;3.45;;;;;;;26.63;47.49;98872.88;5079994;28;20056;-83
2022/08/25 10:02:39;;;;;;;6.78;3.45;;;;;;;26.94;47.49;98866.91;5089527;28;20048;-84
2022/08/25 10:05:19;;;;;;;4.90;3.40;;;;;;;27.31;46.84;98860.50;5091259;28;20044;-84
2022/08/25 10:07:52;;;;;;;4.45;3.28;;;;;;;27.44;45.52;98858.09;5090206;28;20044;-84
2022/08/25 10:10:25;;;;;;;5.82;3.70;;;;;;;27.72;44.81;98836.69;5091947;28;20131;-84
2022/08/25 10:12:52;;;;;;;4.95;3.42;;;;;;;27.89;45.24;98859.25;5091058;28;20399;-84
2022/08/25 10:15:22;;;;;;;7.88;3.55;;;;;;;27.77;44.41;98855.31;5076382;28;20411;-84
2022/08/25 10:17:49;;;;;;;3.67;3.15;;;;;;;27.90;44.34;98851.72;5071839;28;20053;-83
2022/08/25 10:20:20;;;;;;;3.83;3.22;;;;;;;28.07;45.98;98849.19;5071579;28;20475;-84
2022/08/25 10:22:49;;;;;;;6.63;4.03;;;;;;;28.32;44.46;98847.03;5081603;28;20040;-84
2022/08/25 10:25:20;;;;;;;4.80;3.30;;;;;;;28.40;44.45;98843.50;5091666;28;20071;-83
2022/08/25 10:27:57;;;;;;;4.38;3.10;;;;;;;28.42;43.56;98829.22;5090487;28;20044;-84
2022/08/25 10:30:33;;;;;;;6.32;3.30;;;;;;;28.40;43.56;98818.34;5086522;28;20050;-84
2022/08/25 10:33:27;;;;;;;5.30;3.15;;;;;;;28.40;42.77;98826.72;5070748;28;20055;-84
2022/08/25 10:36:01;;;;;;;7.05;3.05;;;;;;;28.18;43.56;98832.22;5068898;28;20165;-84
2022/08/25 10:38:37;;;;;;;3.92;3.05;;;;;;;28.18;43.29;98833.06;5070910;28;20044;-85
2022/08/25 10:41:18;;;;;;;3.97;3.05;;;;;;;28.24;41.69;98825.38;5055273;28;20106;-84
2022/08/25 10:43:52;;;;;;;5.15;2.72;;;;;;;28.35;42.38;98818.47;5071928;28;20480;-83
2022/08/25 10:46:28;;;;;;;3.97;3.58;;;;;;;28.38;41.81;98808.63;5078264;28;20059;-84
2022/08/25 10:49:02;;;;;;;4.13;3.20;;;;;;;28.35;41.21;98812.88;5086845;28;20044;-83
2022/08/25 10:51:55;;;;;;;5.10;3.00;;;;;;;28.54;41.64;98809.13;5086949;28;20063;-83
2022/08/25 10:54:42;;;;;;;5.80;3.17;;;;;;;28.61;41.81;98809.56;5076999;28;20047;-84
2022/08/25 10:57:18;;;;;;;3.72;3.20;;;;;;;28.37;41.80;98806.97;5085358;28;20098;-83
2022/08/25 11:00:04;;;;;;;3.38;2.70;;;;;;;28.48;41.49;98799.19;5087405;28;20063;-84
2022/08/25 11:02:46;;;;;;;4.55;3.13;;;;;;;28.67;40.52;98793.50;5083154;28;20047;-84
2022/08/25 11:05:22;;;;;;;4.22;3.00;;;;;;;29.01;40.54;98806.13;5085334;28;20097;-84
2022/08/25 11:07:54;;;;;;;5.07;3.20;;;;;;;29.10;40.15;98801.44;5089303;28;20165;-83
2022/08/25 11:10:27;;;;;;;4.80;3.03;;;;;;;29.08;39.44;98775.75;5082878;28;20097;-84
2022/08/25 11:12:58;;;;;;;3.47;3.17;;;;;;;29.33;39.98;98802.31;5081932;28;20739;-84
2022/08/25 11:15:28;;;;;;;3.85;2.58;;;;;;;29.34;38.22;98795.56;5088373;28;20606;-84
2022/08/25 11:17:58;;;;;;;7.25;3.13;;;;;;;29.61;38.13;98800.19;5080937;28;20185;-83
2022/08/25 11:20:32;;;;;;;6.47;2.83;;;;;;;29.63;38.34;98769.06;5089943;28;20129;-84
2022/08/25 11:23:11;;;;;;;5.30;2.70;;;;;;;29.83;38.26;98787.31;5084870;28;20416;-85
2022/08/25 11:25:43;;;;;;;4.65;3.08;;;;;;;29.75;38.30;98779.66;5087297;28;20059;-82
2022/08/25 11:28:13;;;;;;;3.35;2.80;;;;;;;29.89;38.40;98788.84;5083752;28;20467;-84
2022/08/25 11:30:40;;;;;;;9.95;2.80;;;;;;;30.12;38.67;98775.56;5088643;28;20257;-83
2022/08/25 11:33:07;;;;;;;4.55;2.83;;;;;;;30.06;37.70;98778.84;5081582;28;20048;-83
2022/08/25 11:35:38;;;;;;;4.60;3.03;;;;;;;30.32;37.58;98765.75;5082394;28;20052;-83
2022/08/25 11:38:22;;;;;;;5.13;2.97;;;;;;;30.57;36.89;98763.34;5090804;28;20044;-83
2022/08/25 11:41:05;;;;;;;4.10;3.10;;;;;;;30.61;36.81;98755.13;5088728;28;20052;-83
2022/08/25 11:43:45;;;;;;;6.82;3.13;;;;;;;30.95;36.48;98762.69;5084602;28;20514;-83
2022/08/25 11:46:27;;;;;;;3.78;2.60;;;;;;;30.84;35.77;98748.19;5082806;28;20058;-83
2022/08/25 11:49:03;;;;;;;3.45;2.63;;;;;;;31.01;36.65;98753.00;5087606;28;20048;-82
2022/08/25 11:51:33;;;;;;;3.42;2.90;;;;;;;31.07;35.45;98753.66;5082119;28;20090;-82
2022/08/25 11:54:18;;;;;;;7.00;2.75;;;;;;;31.17;35.24;98752.50;5081807;28;20047;-82
2022/08/25 11:56:54;;;;;;;3.25;2.83;;;;;;;31.39;35.12;98765.47;5072345;28;20096;-81
2022/08/25 12:00:02;;;;;;;2.55;2.05;;;;;;;31.12;34.98;98755.44;5084950;28;20498;-82
2022/08/25 12:02:33;;;;;;;3.15;2.28;;;;;;;31.65;34.79;98751.41;5089075;28;20604;-82
2022/08/25 12:05:01;;;;;;;3.10;2.28;;;;;;;31.63;33.92;98750.09;5092052;28;20509;-82
2022/08/25 12:07:50;;;;;;;2.60;2.35;;;;;;;31.69;33.71;98754.38;5089221;28;20060;-82
2022/08/25 12:10:20;;;;;;;7.20;2.33;;;;;;;31.84;33.54;98753.84;5088512;28;20087;-82